Time;durP1;ratioP1;P1;durP2;ratioP2;P2;SDS_P1;SDS_P2;PMS_P1;PMS_P2;Temp;Humidity;BMP_temperature;BMP_pressure;BME280_temperature;BME280_humidity;BME280_pressure;Samples;Min_cycle;Max_cycle;Signal;HPM_P1;HPM_P2
2023/08/01 00:00:29;;;;;;;5.97;2.50;;;20.10;68.00;;;;;;5056341;28;20771;-68
2023/08/01 00:02:58;;;;;;;3.37;2.03;;;20.00;69.00;;;;;;5055545;28;20954;-70
2023/08/01 00:05:26;;;;;;;5.47;2.47;;;20.10;69.60;;;;;;5055785;28;20443;-68
2023/08/01 00:07:53;;;;;;;5.50;3.23;;;20.10;69.70;;;;;;5055842;28;20471;-68
2023/08/01 00:10:32;;;;;;;4.40;2.70;;;20.10;70.80;;;;;;5055666;28;20498;-68
2023/08/01 00:12:59;;;;;;;5.80;3.00;;;20.00;71.60;;;;;;5055322;28;20476;-69
2023/08/01 00:15:26;;;;;;;3.93;2.33;;;19.90;71.90;;;;;;5055886;28;20565;-69
2023/08/01 00:17:55;;;;;;;6.60;3.03;;;20.00;72.30;;;;;;5056068;28;20431;-68
2023/08/01 00:20:22;;;;;;;3.67;2.30;;;20.10;72.40;;;;;;5055486;28;20440;-68
2023/08/01 00:22:51;;;;;;;3.80;2.60;;;20.10;72.40;;;;;;5055236;28;20432;-69
2023/08/01 00:25:19;;;;;;;4.47;2.43;;;20.20;72.30;;;;;;5055453;28;20482;-68
2023/08/01 00:27:51;;;;;;;4.40;2.37;;;20.20;72.80;;;;;;5055546;28;20442;-68
2023/08/01 00:30:18;;;;;;;5.73;2.70;;;20.20;72.30;;;;;;5055746;28;20438;-68
2023/08/01 00:32:45;;;;;;;4.63;2.37;;;20.40;72.40;;;;;;5055586;28;20872;-69
2023/08/01 00:35:12;;;;;;;3.87;2.43;;;20.40;72.20;;;;;;5054905;28;20439;-69
2023/08/01 00:37:39;;;;;;;7.20;2.70;;;20.50;72.10;;;;;;5055354;28;20427;-68
2023/08/01 00:40:09;;;;;;;5.33;2.50;;;20.50;72.00;;;;;;5055432;28;20440;-68
2023/08/01 00:42:37;;;;;;;3.70;2.53;;;20.50;72.00;;;;;;5055213;28;20514;-68
2023/08/01 00:45:10;;;;;;;6.67;2.83;;;20.50;72.10;;;;;;5055103;28;20439;-68
2023/08/01 00:47:37;;;;;;;9.50;3.10;;;20.60;72.20;;;;;;5053949;28;20465;-68
2023/08/01 00:50:05;;;;;;;4.57;3.00;;;20.60;72.40;;;;;;5055290;28;20478;-69
2023/08/01 00:52:32;;;;;;;4.50;2.70;;;20.60;72.50;;;;;;5055365;28;20550;-68
2023/08/01 00:54:59;;;;;;;3.80;2.33;;;20.50;72.80;;;;;;5054867;28;20436;-68
2023/08/01 00:57:27;;;;;;;3.13;2.10;;;20.50;73.00;;;;;;5054137;28;20510;-68
2023/08/01 00:59:54;;;;;;;3.77;2.57;;;20.50;73.30;;;;;;5055183;28;20828;-68
2023/08/01 01:02:24;;;;;;;7.90;2.90;;;20.50;73.50;;;;;;5054834;28;20475;-68
2023/08/01 01:04:51;;;;;;;5.20;3.00;;;20.50;73.40;;;;;;5054633;28;20478;-68
2023/08/01 01:07:23;;;;;;;4.87;2.63;;;20.50;73.70;;;;;;5054352;28;20482;-68
2023/08/01 01:09:51;;;;;;;5.33;2.90;;;20.50;73.60;;;;;;5054679;28;20470;-68
2023/08/01 01:12:18;;;;;;;6.80;2.53;;;20.50;73.70;;;;;;5053281;28;20505;-68
2023/08/01 01:14:46;;;;;;;3.70;2.30;;;20.60;74.10;;;;;;5054903;28;20446;-68
2023/08/01 01:17:13;;;;;;;4.53;2.87;;;20.60;73.50;;;;;;5054548;28;20575;-68
2023/08/01 01:19:45;;;;;;;6.97;2.40;;;20.50;73.60;;;;;;5053968;28;20446;-69
2023/08/01 01:22:14;;;;;;;5.27;2.63;;;20.50;73.30;;;;;;5034784;28;20463;-69
2023/08/01 01:24:43;;;;;;;5.03;2.80;;;20.50;73.70;;;;;;5034328;28;20440;-68
2023/08/01 01:27:13;;;;;;;5.00;2.80;;;20.60;73.30;;;;;;5034712;28;20522;-69
2023/08/01 01:29:42;;;;;;;5.33;2.80;;;20.50;73.50;;;;;;5034421;28;20478;-68
2023/08/01 01:32:11;;;;;;;4.10;2.80;;;20.60;73.70;;;;;;5051285;28;20846;-68
2023/08/01 01:34:38;;;;;;;4.97;3.30;;;20.60;73.70;;;;;;5054410;28;20442;-68
2023/08/01 01:37:05;;;;;;;4.50;2.23;;;20.60;73.60;;;;;;5054316;28;20541;-68
2023/08/01 01:39:34;;;;;;;3.83;2.70;;;20.40;73.90;;;;;;5054071;28;20470;-68
2023/08/01 01:42:01;;;;;;;8.70;2.90;;;20.40;74.10;;;;;;5053774;28;20439;-68
2023/08/01 01:44:30;;;;;;;6.90;2.70;;;20.40;74.20;;;;;;5053948;28;20863;-68
2023/08/01 01:46:57;;;;;;;5.53;2.87;;;20.30;74.90;;;;;;5054232;28;20447;-68
2023/08/01 01:49:26;;;;;;;4.17;2.93;;;20.30;74.80;;;;;;5053767;28;20492;-68
2023/08/01 01:51:55;;;;;;;4.40;2.70;;;20.40;75.00;;;;;;5053318;28;20447;-68
2023/08/01 01:54:22;;;;;;;4.33;2.87;;;20.40;74.90;;;;;;5054047;28;20435;-68
2023/08/01 01:56:50;;;;;;;5.47;2.60;;;20.40;74.70;;;;;;5054064;28;20555;-68
2023/08/01 01:59:17;;;;;;;5.97;2.20;;;20.40;74.80;;;;;;5053381;28;20434;-68
2023/08/01 02:01:47;;;;;;;4.50;2.50;;;20.50;74.90;;;;;;5053707;28;20478;-69
2023/08/01 02:04:14;;;;;;;3.57;2.27;;;20.50;74.60;;;;;;5053918;28;20443;-68
2023/08/01 02:06:49;;;;;;;4.93;2.10;;;20.50;74.60;;;;;;5053916;28;20447;-68
2023/08/01 02:09:16;;;;;;;4.07;2.50;;;20.50;74.50;;;;;;5053416;28;20827;-68
2023/08/01 02:11:45;;;;;;;5.07;2.70;;;20.50;74.70;;;;;;5053663;28;20510;-68
2023/08/01 02:14:14;;;;;;;4.97;2.70;;;20.50;75.10;;;;;;5053730;28;20442;-69
2023/08/01 02:16:41;;;;;;;4.63;2.73;;;20.60;75.50;;;;;;5053623;28;20552;-68
2023/08/01 02:19:08;;;;;;;3.80;2.20;;;20.60;75.70;;;;;;5053406;28;20991;-69
2023/08/01 02:21:35;;;;;;;3.63;2.53;;;20.60;75.20;;;;;;5053065;28;20827;-68
2023/08/01 02:24:03;;;;;;;4.80;2.80;;;20.60;75.10;;;;;;5053484;28;20541;-68
2023/08/01 02:26:32;;;;;;;6.23;2.50;;;20.60;75.00;;;;;;5053625;28;20443;-68
2023/08/01 02:28:59;;;;;;;4.07;2.17;;;20.60;75.10;;;;;;5053594;28;20491;-68
2023/08/01 02:31:27;;;;;;;5.03;2.80;;;20.70;75.20;;;;;;5051703;28;20487;-68
2023/08/01 02:33:56;;;;;;;5.47;3.37;;;20.60;75.20;;;;;;5033536;28;20443;-68
2023/08/01 02:36:23;;;;;;;5.90;3.00;;;20.70;75.50;;;;;;5033062;28;20475;-68
2023/08/01 02:38:55;;;;;;;3.80;2.23;;;20.60;75.20;;;;;;5033263;28;20988;-68
2023/08/01 02:41:22;;;;;;;4.67;3.13;;;20.60;74.60;;;;;;5048133;28;20431;-68
2023/08/01 02:43:53;;;;;;;4.57;3.10;;;20.70;74.30;;;;;;5053267;28;20489;-69
2023/08/01 02:46:21;;;;;;;4.50;2.37;;;20.60;74.30;;;;;;5033192;28;20456;-69
2023/08/01 02:48:49;;;;;;;3.83;2.73;;;20.60;74.30;;;;;;5033405;28;20441;-69
2023/08/01 02:51:16;;;;;;;4.73;2.63;;;20.50;74.70;;;;;;5046540;28;20466;-68
2023/08/01 02:53:48;;;;;;;5.50;3.27;;;20.50;74.80;;;;;;5053303;28;20501;-68
2023/08/01 02:56:16;;;;;;;4.50;2.60;;;20.40;75.00;;;;;;5052818;28;20462;-74
2023/08/01 02:58:45;;;;;;;5.40;3.00;;;20.40;75.10;;;;;;5053248;28;20471;-68
2023/08/01 03:01:13;;;;;;;3.63;2.30;;;20.40;75.50;;;;;;5052420;28;20477;-68
2023/08/01 03:03:41;;;;;;;4.47;2.63;;;20.50;75.80;;;;;;5053122;28;20442;-68
2023/08/01 03:06:09;;;;;;;5.50;2.97;;;20.50;76.20;;;;;;5053039;28;20436;-74
2023/08/01 03:08:36;;;;;;;4.30;2.87;;;20.50;76.80;;;;;;5053184;28;20465;-68
2023/08/01 03:11:05;;;;;;;3.90;2.47;;;20.50;77.50;;;;;;5054078;28;20478;-69
2023/08/01 03:13:33;;;;;;;3.80;2.57;;;20.50;77.50;;;;;;5056784;28;20910;-68
2023/08/01 03:16:00;;;;;;;4.57;2.80;;;20.50;77.30;;;;;;5057074;28;20850;-68
2023/08/01 03:18:27;;;;;;;4.13;2.50;;;20.50;77.20;;;;;;5056373;28;20427;-68
2023/08/01 03:20:54;;;;;;;4.90;2.77;;;20.50;77.20;;;;;;5056431;28;20483;-68
2023/08/01 03:23:23;;;;;;;6.80;3.20;;;20.50;77.10;;;;;;5056647;28;20431;-68
2023/08/01 03:25:50;;;;;;;4.33;2.30;;;20.50;77.70;;;;;;5056968;28;20442;-68
2023/08/01 03:28:21;;;;;;;5.53;2.77;;;20.50;78.10;;;;;;5056764;28;20470;-68
2023/08/01 03:30:53;;;;;;;5.43;2.80;;;20.50;78.50;;;;;;5056326;28;20435;-68
2023/08/01 03:33:21;;;;;;;5.23;3.03;;;20.50;78.70;;;;;;5056880;28;20485;-70
2023/08/01 03:35:48;;;;;;;4.47;3.20;;;20.50;78.80;;;;;;5055962;28;20490;-68
2023/08/01 03:38:15;;;;;;;4.93;3.30;;;20.50;78.70;;;;;;5056397;28;20517;-68
2023/08/01 03:40:45;;;;;;;5.17;3.37;;;20.50;79.10;;;;;;5056660;28;20481;-68
2023/08/01 03:43:12;;;;;;;4.80;2.83;;;20.50;79.30;;;;;;5056652;28;20811;-68
2023/08/01 03:45:41;;;;;;;3.80;2.23;;;20.50;79.70;;;;;;5056650;28;20522;-68
2023/08/01 03:48:08;;;;;;;4.13;2.97;;;20.40;80.30;;;;;;5056623;28;20546;-68
2023/08/01 03:50:40;;;;;;;4.40;2.73;;;20.40;80.90;;;;;;5055400;28;20515;-68
2023/08/01 03:53:12;;;;;;;3.50;2.23;;;20.40;81.10;;;;;;5054709;28;20565;-68
2023/08/01 03:55:42;;;;;;;5.30;3.17;;;20.40;81.20;;;;;;5056507;28;20980;-68
2023/08/01 03:58:10;;;;;;;4.40;2.90;;;20.40;81.20;;;;;;5056207;28;20518;-68
2023/08/01 04:00:37;;;;;;;4.20;3.00;;;20.40;81.00;;;;;;5055973;28;20436;-69
2023/08/01 04:03:04;;;;;;;5.83;2.60;;;20.40;80.80;;;;;;5055774;28;20477;-68
2023/08/01 04:05:36;;;;;;;4.80;3.10;;;20.40;80.70;;;;;;5055929;28;20521;-68
2023/08/01 04:08:04;;;;;;;6.57;2.80;;;20.40;80.90;;;;;;5056282;28;20514;-73
2023/08/01 04:10:32;;;;;;;7.57;2.83;;;20.40;81.50;;;;;;5055927;28;20827;-68
2023/08/01 04:13:01;;;;;;;4.03;2.80;;;20.40;82.10;;;;;;5056164;28;20512;-68
2023/08/01 04:15:30;;;;;;;5.33;3.40;;;20.40;82.70;;;;;;5055917;28;20482;-68
2023/08/01 04:17:59;;;;;;;3.93;2.63;;;20.40;82.70;;;;;;5055851;28;20474;-68
2023/08/01 04:20:26;;;;;;;6.30;3.60;;;20.40;82.00;;;;;;5055831;28;20458;-68
2023/08/01 04:22:54;;;;;;;4.00;2.40;;;20.30;81.30;;;;;;5055400;28;20479;-68
2023/08/01 04:25:26;;;;;;;5.00;3.40;;;20.20;81.80;;;;;;5055188;28;20530;-69
2023/08/01 04:27:59;;;;;;;3.83;2.60;;;20.10;81.80;;;;;;5056107;28;20427;-68
2023/08/01 04:30:26;;;;;;;4.97;3.20;;;20.10;82.20;;;;;;5055515;28;20435;-68
2023/08/01 04:32:55;;;;;;;4.37;3.07;;;20.10;82.60;;;;;;5055494;28;20478;-68
2023/08/01 04:35:22;;;;;;;6.53;3.17;;;20.10;82.80;;;;;;5055013;28;20545;-68
2023/08/01 04:37:52;;;;;;;6.67;3.00;;;20.10;82.90;;;;;;5054675;28;20503;-68
2023/08/01 04:40:19;;;;;;;5.30;2.87;;;20.10;83.00;;;;;;5055220;28;20493;-68
2023/08/01 04:42:47;;;;;;;4.60;2.87;;;20.10;83.00;;;;;;5054950;28;20447;-68
2023/08/01 04:45:15;;;;;;;5.60;3.40;;;20.10;83.30;;;;;;5055394;28;20525;-68
2023/08/01 04:47:43;;;;;;;5.63;3.27;;;20.10;83.70;;;;;;5055177;28;20518;-69
2023/08/01 04:50:12;;;;;;;5.53;3.30;;;20.10;83.90;;;;;;5055327;28;20867;-69
2023/08/01 04:52:39;;;;;;;6.43;2.67;;;20.10;84.30;;;;;;5055163;28;20435;-69
2023/08/01 04:55:07;;;;;;;5.90;3.10;;;20.10;84.60;;;;;;5052819;28;20854;-68
2023/08/01 04:57:35;;;;;;;6.43;3.00;;;20.10;84.80;;;;;;5054080;28;20485;-69
2023/08/01 05:00:04;;;;;;;9.67;3.70;;;20.10;85.30;;;;;;5054530;28;20461;-68
2023/08/01 05:02:32;;;;;;;4.87;3.20;;;20.10;85.80;;;;;;5054684;28;20474;-68
2023/08/01 05:05:00;;;;;;;7.83;3.20;;;20.10;85.90;;;;;;5054099;28;20997;-70
2023/08/01 05:07:29;;;;;;;5.20;3.07;;;20.10;86.30;;;;;;5053640;28;20451;-68
2023/08/01 05:09:56;;;;;;;8.13;2.97;;;20.10;86.90;;;;;;5051701;28;20530;-68
2023/08/01 05:12:23;;;;;;;5.50;3.20;;;20.20;87.90;;;;;;5054491;28;20501;-69
2023/08/01 05:14:50;;;;;;;5.93;3.37;;;20.20;88.90;;;;;;5053904;28;20865;-69
2023/08/01 05:17:17;;;;;;;11.90;3.90;;;20.10;89.30;;;;;;5053253;28;20466;-69
2023/08/01 05:19:44;;;;;;;6.27;3.03;;;20.10;88.60;;;;;;5054220;28;20522;-68
2023/08/01 05:22:11;;;;;;;4.50;2.90;;;20.10;89.00;;;;;;5054396;28;20815;-68
2023/08/01 05:24:39;;;;;;;7.60;3.23;;;20.10;89.70;;;;;;5053400;28;20569;-70
2023/08/01 05:27:07;;;;;;;6.87;3.00;;;20.20;89.90;;;;;;5054074;28;20525;-68
2023/08/01 05:29:34;;;;;;;4.73;3.50;;;20.20;90.10;;;;;;5053844;28;20844;-68
2023/08/01 05:32:01;;;;;;;4.40;3.03;;;20.20;89.40;;;;;;5054121;28;20521;-68
2023/08/01 05:34:28;;;;;;;6.63;3.27;;;20.10;88.50;;;;;;5052682;28;20458;-69
2023/08/01 05:36:55;;;;;;;6.10;3.60;;;20.10;89.10;;;;;;5053592;28;21005;-68
2023/08/01 05:39:22;;;;;;;5.10;3.57;;;20.10;89.30;;;;;;5053907;28;20442;-68
2023/08/01 05:41:50;;;;;;;4.80;3.17;;;20.10;89.60;;;;;;5053662;28;20426;-68
2023/08/01 05:44:17;;;;;;;7.50;4.07;;;20.10;89.70;;;;;;5053483;28;20446;-68
2023/08/01 05:46:45;;;;;;;7.50;3.63;;;20.10;90.20;;;;;;5053445;28;20484;-68
2023/08/01 05:49:12;;;;;;;5.53;3.30;;;20.10;90.40;;;;;;5052778;28;20489;-68
2023/08/01 05:51:39;;;;;;;3.90;2.67;;;20.20;90.70;;;;;;5052894;28;20533;-68
2023/08/01 05:54:07;;;;;;;6.37;2.97;;;20.10;90.60;;;;;;5053587;28;20437;-68
2023/08/01 05:56:39;;;;;;;8.10;4.40;;;20.10;90.70;;;;;;5049398;28;20433;-70
2023/08/01 05:59:08;;;;;;;5.30;3.30;;;20.10;90.70;;;;;;5053009;28;20818;-68
2023/08/01 06:01:36;;;;;;;5.00;3.60;;;20.10;90.90;;;;;;5052424;28;20439;-69
2023/08/01 06:04:06;;;;;;;5.90;3.53;;;20.10;91.00;;;;;;5053247;28;20434;-68
2023/08/01 06:06:38;;;;;;;4.30;2.63;;;20.10;91.00;;;;;;5052853;28;20482;-68
2023/08/01 06:09:05;;;;;;;5.17;3.80;;;20.20;91.10;;;;;;5052711;28;20467;-75
2023/08/01 06:11:34;;;;;;;8.03;3.23;;;20.10;91.50;;;;;;5052971;28;20722;-68
2023/08/01 06:14:02;;;;;;;5.00;3.17;;;20.10;91.60;;;;;;5045293;28;20438;-69
2023/08/01 06:16:30;;;;;;;7.60;4.17;;;20.20;91.80;;;;;;5052403;28;20440;-69
2023/08/01 06:19:00;;;;;;;6.73;3.37;;;20.20;91.80;;;;;;5052595;28;20504;-68
2023/08/01 06:21:29;;;;;;;4.83;3.53;;;20.20;91.50;;;;;;5052644;28;20526;-68
2023/08/01 06:23:59;;;;;;;4.90;3.80;;;20.20;91.70;;;;;;5051991;28;20986;-68
2023/08/01 06:26:29;;;;;;;5.87;4.17;;;20.20;91.80;;;;;;5052498;28;20944;-68
2023/08/01 06:28:58;;;;;;;6.87;3.70;;;20.20;91.80;;;;;;5052231;28;20497;-69
2023/08/01 06:31:29;;;;;;;8.10;4.53;;;20.20;92.00;;;;;;5052254;28;20956;-68
2023/08/01 06:34:03;;;;;;;5.13;4.60;;;20.20;92.20;;;;;;5052740;28;20454;-69
2023/08/01 06:36:32;;;;;;;6.87;3.47;;;20.20;92.50;;;;;;5052879;28;20841;-68
2023/08/01 06:39:05;;;;;;;6.07;3.93;;;20.20;92.40;;;;;;5052144;28;20517;-69
2023/08/01 06:41:32;;;;;;;8.07;4.30;;;20.20;92.30;;;;;;5033496;28;20431;-69
2023/08/01 06:44:05;;;;;;;7.77;4.10;;;20.20;92.00;;;;;;5052484;28;20431;-68
2023/08/01 06:46:32;;;;;;;7.67;4.00;;;20.20;92.20;;;;;;5051927;28;20944;-69
2023/08/01 06:49:06;;;;;;;6.73;4.17;;;20.00;92.70;;;;;;5052384;28;20504;-69
2023/08/01 06:51:33;;;;;;;12.53;4.17;;;20.00;93.00;;;;;;5052553;28;20458;-68
2023/08/01 06:54:02;;;;;;;6.10;4.50;;;20.00;93.20;;;;;;5051012;28;20795;-70
2023/08/01 06:56:31;;;;;;;6.53;3.80;;;19.90;93.30;;;;;;5051577;28;20521;-68
2023/08/01 06:59:07;;;;;;;6.77;3.83;;;19.90;93.30;;;;;;5049699;28;20482;-68
2023/08/01 07:01:40;;;;;;;5.13;3.77;;;19.90;92.90;;;;;;5047603;28;20525;-71
2023/08/01 07:04:08;;;;;;;4.80;3.50;;;19.80;92.50;;;;;;5052151;28;20458;-68
2023/08/01 07:06:41;;;;;;;5.73;3.83;;;19.80;92.60;;;;;;5051106;28;20824;-69
2023/08/01 07:09:08;;;;;;;6.90;4.70;;;19.90;92.50;;;;;;5050897;28;20466;-68
2023/08/01 07:11:35;;;;;;;6.40;4.17;;;19.90;92.30;;;;;;5052556;28;20431;-69
2023/08/01 07:14:02;;;;;;;5.33;3.90;;;19.90;90.90;;;;;;5052354;28;20928;-68
2023/08/01 07:16:30;;;;;;;4.60;3.40;;;19.80;91.30;;;;;;5052578;28;20500;-68
2023/08/01 07:19:05;;;;;;;7.23;3.57;;;19.70;91.20;;;;;;5052575;28;21002;-68
2023/08/01 07:21:33;;;;;;;5.17;3.80;;;19.60;91.60;;;;;;5052529;28;20520;-68
2023/08/01 07:24:00;;;;;;;4.53;3.03;;;19.70;91.90;;;;;;5052721;28;20470;-68
2023/08/01 07:26:28;;;;;;;6.20;4.10;;;19.70;92.00;;;;;;5052643;28;20443;-68
2023/08/01 07:28:55;;;;;;;4.90;3.57;;;19.80;92.50;;;;;;5052615;28;20448;-68
2023/08/01 07:31:22;;;;;;;5.73;4.17;;;19.80;91.50;;;;;;5052921;28;20445;-68
2023/08/01 07:33:50;;;;;;;6.27;3.60;;;19.80;91.80;;;;;;5052518;28;20485;-68
2023/08/01 07:36:17;;;;;;;6.97;4.03;;;19.80;91.80;;;;;;5052399;28;20438;-69
2023/08/01 07:38:45;;;;;;;6.30;3.60;;;19.90;92.10;;;;;;5052760;28;20482;-68
2023/08/01 07:41:12;;;;;;;5.27;3.70;;;20.10;92.30;;;;;;5052794;28;20431;-68
2023/08/01 07:43:44;;;;;;;6.23;3.43;;;20.10;92.20;;;;;;5052392;28;20427;-68
2023/08/01 07:46:11;;;;;;;5.70;4.17;;;20.20;92.00;;;;;;5052872;28;20426;-68
2023/08/01 07:48:39;;;;;;;5.63;3.43;;;20.20;91.80;;;;;;5052463;28;20857;-68
2023/08/01 07:51:07;;;;;;;6.37;3.40;;;20.30;91.20;;;;;;5052739;28;20549;-68
2023/08/01 07:53:34;;;;;;;8.30;4.43;;;20.40;90.20;;;;;;5052496;28;20439;-69
2023/08/01 07:56:06;;;;;;;5.40;3.77;;;20.40;87.40;;;;;;5052703;28;20840;-68
2023/08/01 07:58:35;;;;;;;6.67;3.53;;;20.30;86.40;;;;;;5055809;28;20463;-68
2023/08/01 08:01:06;;;;;;;6.20;3.60;;;20.30;85.90;;;;;;5055978;28;20470;-68
2023/08/01 08:03:39;;;;;;;7.50;3.43;;;20.30;86.00;;;;;;5056353;28;20497;-69
2023/08/01 08:06:06;;;;;;;4.93;3.70;;;20.30;86.00;;;;;;5056227;28;20808;-68
2023/08/01 08:08:36;;;;;;;9.37;3.63;;;20.40;84.80;;;;;;5056027;28;20439;-69
2023/08/01 08:11:05;;;;;;;5.40;3.40;;;20.10;84.50;;;;;;5056279;28;20799;-68
2023/08/01 08:13:32;;;;;;;5.00;3.43;;;20.00;85.20;;;;;;5055639;28;20446;-68
2023/08/01 08:16:00;;;;;;;4.20;3.07;;;20.00;85.80;;;;;;5056204;28;20436;-69
2023/08/01 08:18:27;;;;;;;7.40;4.10;;;20.00;86.60;;;;;;5055498;28;20591;-69
2023/08/01 08:20:56;;;;;;;4.60;3.03;;;20.10;86.20;;;;;;5055870;28;20440;-69
2023/08/01 08:23:23;;;;;;;6.80;3.07;;;20.00;86.30;;;;;;5055844;28;20513;-69
2023/08/01 08:25:50;;;;;;;7.23;2.80;;;19.90;87.60;;;;;;5055483;28;20477;-69
2023/08/01 08:28:30;;;;;;;7.20;3.13;;;20.00;87.90;;;;;;5055769;28;20478;-69
2023/08/01 08:30:58;;;;;;;4.70;3.53;;;19.90;87.70;;;;;;5055806;28;20506;-69
2023/08/01 08:33:30;;;;;;;7.37;3.93;;;20.00;88.50;;;;;;5055855;28;20466;-69
2023/08/01 08:35:57;;;;;;;5.50;3.10;;;20.10;88.80;;;;;;5055559;28;20835;-69
2023/08/01 08:38:26;;;;;;;6.97;3.60;;;20.10;88.80;;;;;;5055396;28;20874;-70
2023/08/01 08:41:09;;;;;;;6.03;3.60;;;20.00;89.80;;;;;;5055584;28;20850;-69
2023/08/01 08:43:38;;;;;;;7.50;3.03;;;20.00;89.80;;;;;;5055553;28;20498;-69
2023/08/01 08:46:06;;;;;;;5.40;3.80;;;19.90;90.30;;;;;;5055163;28;20471;-69
2023/08/01 08:48:36;;;;;;;5.87;3.70;;;20.10;91.00;;;;;;5055373;28;20439;-69
2023/08/01 08:51:10;;;;;;;5.47;3.70;;;20.10;91.90;;;;;;5055637;28;20431;-69
2023/08/01 08:53:37;;;;;;;7.67;3.90;;;20.20;92.50;;;;;;5055337;28;20527;-69
2023/08/01 08:56:08;;;;;;;6.27;3.43;;;20.20;91.50;;;;;;5054934;28;20470;-69
2023/08/01 08:58:38;;;;;;;7.10;3.27;;;20.20;91.90;;;;;;5054780;28;20553;-69
2023/08/01 09:01:07;;;;;;;5.47;3.93;;;20.10;91.70;;;;;;5055050;28;20446;-69
2023/08/01 09:03:34;;;;;;;6.20;3.80;;;20.20;91.80;;;;;;5055186;28;20435;-68
2023/08/01 09:06:05;;;;;;;5.50;3.60;;;20.20;91.70;;;;;;5054700;28;20924;-69
2023/08/01 09:08:37;;;;;;;5.03;3.40;;;20.20;91.40;;;;;;5054057;28;20534;-69
2023/08/01 09:11:05;;;;;;;5.37;3.63;;;20.10;92.00;;;;;;5054773;28;20509;-69
2023/08/01 09:13:32;;;;;;;6.40;3.80;;;20.20;92.30;;;;;;5054524;28;20461;-69
2023/08/01 09:16:03;;;;;;;5.23;3.50;;;20.10;92.10;;;;;;5054926;28;20465;-69
2023/08/01 09:18:30;;;;;;;5.80;3.47;;;20.00;92.10;;;;;;5054815;28;20502;-69
2023/08/01 09:21:03;;;;;;;5.30;3.53;;;20.00;92.50;;;;;;5054579;28;20500;-70
2023/08/01 09:23:35;;;;;;;5.47;4.00;;;20.10;93.00;;;;;;5054644;28;20430;-69
2023/08/01 09:26:12;;;;;;;7.03;4.17;;;20.20;92.90;;;;;;5054904;28;20845;-69
2023/08/01 09:28:41;;;;;;;8.10;4.83;;;20.20;92.70;;;;;;5054671;28;20460;-69
2023/08/01 09:31:12;;;;;;;5.20;3.83;;;20.40;93.10;;;;;;5054323;28;20940;-68
2023/08/01 09:33:40;;;;;;;5.17;3.60;;;20.50;93.30;;;;;;5054692;28;20488;-69
2023/08/01 09:36:08;;;;;;;9.63;4.23;;;20.50;92.90;;;;;;5054274;28;20445;-75
2023/08/01 09:38:35;;;;;;;6.50;3.80;;;20.60;92.80;;;;;;5054312;28;20467;-69
2023/08/01 09:41:05;;;;;;;6.30;3.83;;;20.60;92.90;;;;;;5054397;28;20478;-69
2023/08/01 09:43:38;;;;;;;7.63;4.30;;;20.70;93.40;;;;;;5054316;28;20501;-69
2023/08/01 09:46:09;;;;;;;5.93;3.50;;;20.70;92.50;;;;;;5053945;28;20432;-71
2023/08/01 09:48:43;;;;;;;6.90;4.40;;;20.80;92.40;;;;;;5054187;28;20470;-69
2023/08/01 09:51:15;;;;;;;8.20;3.93;;;20.80;92.00;;;;;;5054060;28;20485;-69
2023/08/01 09:53:50;;;;;;;7.20;3.90;;;20.80;91.40;;;;;;5053823;28;20436;-68
2023/08/01 09:56:21;;;;;;;7.53;3.80;;;20.70;91.00;;;;;;5054393;28;20766;-69
2023/08/01 09:58:49;;;;;;;7.27;4.20;;;20.70;91.20;;;;;;5053491;28;21021;-69
2023/08/01 10:01:19;;;;;;;6.87;3.70;;;20.60;91.50;;;;;;5054024;28;20457;-69
2023/08/01 10:03:49;;;;;;;5.70;3.63;;;20.70;91.70;;;;;;5053676;28;20423;-69
2023/08/01 10:06:19;;;;;;;5.43;3.20;;;20.80;91.90;;;;;;5053630;28;20973;-68
2023/08/01 10:08:47;;;;;;;9.13;4.03;;;20.80;92.00;;;;;;5053889;28;20794;-69
2023/08/01 10:11:28;;;;;;;6.47;3.30;;;20.90;92.60;;;;;;5054019;28;20470;-69
2023/08/01 10:13:55;;;;;;;6.10;3.97;;;21.00;92.20;;;;;;5053582;28;20944;-70
2023/08/01 10:16:26;;;;;;;5.63;3.43;;;21.20;90.80;;;;;;5053720;28;20439;-69
2023/08/01 10:18:53;;;;;;;5.67;3.57;;;21.30;90.70;;;;;;5053790;28;20475;-69
2023/08/01 10:21:21;;;;;;;7.90;4.43;;;21.40;90.40;;;;;;5053085;28;20471;-69
2023/08/01 10:23:51;;;;;;;9.27;3.87;;;21.50;87.90;;;;;;5053713;28;20436;-68
2023/08/01 10:26:21;;;;;;;13.50;4.00;;;21.50;84.70;;;;;;5053560;28;20438;-69
2023/08/01 10:28:53;;;;;;;6.30;3.50;;;21.40;82.80;;;;;;5053315;28;20510;-73
2023/08/01 10:31:23;;;;;;;5.97;3.93;;;21.40;82.40;;;;;;5053295;28;20918;-68
2023/08/01 10:34:05;;;;;;;5.20;2.60;;;21.30;82.60;;;;;;5053628;28;20479;-72
2023/08/01 10:36:33;;;;;;;7.27;3.90;;;21.20;82.80;;;;;;5053166;28;20902;-68
2023/08/01 10:39:02;;;;;;;6.00;3.33;;;21.20;84.70;;;;;;5053589;28;20494;-69
2023/08/01 10:41:35;;;;;;;5.00;2.87;;;21.10;82.40;;;;;;5053367;28;20514;-69
2023/08/01 10:44:12;;;;;;;5.57;3.57;;;21.10;82.80;;;;;;5053249;28;21013;-68
2023/08/01 10:46:52;;;;;;;5.40;3.50;;;21.10;83.80;;;;;;5053500;28;20418;-68
2023/08/01 10:49:21;;;;;;;5.60;3.20;;;21.10;83.90;;;;;;5052711;28;20435;-68
2023/08/01 10:51:52;;;;;;;6.43;3.40;;;21.10;84.40;;;;;;5052558;28;20530;-68
2023/08/01 10:54:21;;;;;;;5.27;3.40;;;21.10;85.20;;;;;;5048247;28;20511;-70
2023/08/01 10:57:08;;;;;;;4.37;3.00;;;21.10;86.00;;;;;;5052635;28;20494;-69
2023/08/01 10:59:42;;;;;;;5.67;3.90;;;21.10;87.40;;;;;;5052266;28;20497;-68
2023/08/01 11:02:10;;;;;;;5.60;3.77;;;20.90;87.80;;;;;;5053094;28;20442;-69
2023/08/01 11:04:39;;;;;;;5.70;3.90;;;21.00;89.00;;;;;;5039396;28;20532;-69
2023/08/01 11:07:12;;;;;;;6.17;3.77;;;21.10;89.10;;;;;;5050358;28;20446;-68
2023/08/01 11:09:47;;;;;;;5.33;3.07;;;21.30;89.00;;;;;;5038905;28;20488;-68
2023/08/01 11:12:16;;;;;;;4.80;3.23;;;21.30;89.40;;;;;;5052036;28;20554;-69
2023/08/01 11:14:45;;;;;;;4.80;2.87;;;21.30;88.30;;;;;;5052561;28;20444;-68
2023/08/01 11:17:14;;;;;;;6.93;3.60;;;21.40;88.10;;;;;;5051881;28;21003;-70
2023/08/01 11:19:43;;;;;;;4.63;2.80;;;21.40;88.60;;;;;;5052063;28;20654;-68
2023/08/01 11:22:11;;;;;;;5.60;3.00;;;21.30;87.40;;;;;;5052329;28;20463;-69
2023/08/01 11:24:39;;;;;;;5.60;3.43;;;21.30;87.40;;;;;;5051952;28;20452;-68
2023/08/01 11:27:11;;;;;;;4.80;3.03;;;21.30;87.40;;;;;;5052614;28;20933;-69
2023/08/01 11:29:43;;;;;;;6.90;2.70;;;21.20;87.00;;;;;;5050821;28;20858;-69
2023/08/01 11:32:14;;;;;;;4.80;2.90;;;21.10;85.50;;;;;;5051195;28;20497;-69
2023/08/01 11:34:43;;;;;;;3.80;2.40;;;20.90;85.20;;;;;;5055618;28;20427;-68
2023/08/01 11:37:10;;;;;;;4.43;2.50;;;20.80;86.60;;;;;;5055556;28;20960;-70
2023/08/01 11:39:37;;;;;;;4.30;2.77;;;20.70;86.60;;;;;;5054938;28;20474;-69
2023/08/01 11:42:05;;;;;;;4.00;2.60;;;20.70;87.50;;;;;;5056412;28;20469;-68
2023/08/01 11:44:32;;;;;;;4.23;2.60;;;20.70;87.50;;;;;;5056406;28;20845;-73
2023/08/01 11:46:59;;;;;;;5.07;2.13;;;20.70;87.40;;;;;;5055328;28;20521;-69
2023/08/01 11:49:28;;;;;;;3.37;2.33;;;20.70;87.30;;;;;;5055243;28;20482;-68
2023/08/01 11:51:54;;;;;;;4.20;2.27;;;20.70;87.80;;;;;;5056510;28;20529;-68
2023/08/01 11:54:21;;;;;;;3.70;2.37;;;20.70;88.10;;;;;;5056364;28;20471;-68
2023/08/01 11:56:48;;;;;;;3.80;2.50;;;20.70;86.80;;;;;;5056132;28;20942;-68
2023/08/01 11:59:16;;;;;;;4.23;3.30;;;20.80;87.10;;;;;;5056352;28;20558;-70
2023/08/01 12:01:45;;;;;;;4.20;2.33;;;20.70;85.00;;;;;;5056296;28;20474;-69
2023/08/01 12:04:12;;;;;;;4.50;2.13;;;20.70;86.20;;;;;;5056418;28;20434;-68
2023/08/01 12:06:41;;;;;;;3.93;2.03;;;20.70;87.10;;;;;;5056320;28;20431;-69
2023/08/01 12:09:12;;;;;;;6.10;3.23;;;20.80;86.60;;;;;;5056001;28;20471;-69
2023/08/01 12:11:40;;;;;;;5.07;3.57;;;20.90;87.20;;;;;;5056162;28;20428;-69
2023/08/01 12:14:09;;;;;;;9.07;3.10;;;21.00;88.10;;;;;;5056248;28;20853;-68
2023/08/01 12:16:37;;;;;;;4.20;2.23;;;21.10;88.50;;;;;;5056278;28;20521;-68
2023/08/01 12:19:04;;;;;;;4.33;2.10;;;21.30;87.60;;;;;;5056060;28;20516;-68
2023/08/01 12:21:32;;;;;;;4.40;2.23;;;21.50;87.70;;;;;;5055644;28;20527;-69
2023/08/01 12:24:01;;;;;;;4.10;2.00;;;21.60;84.50;;;;;;5055946;28;20436;-68
2023/08/01 12:26:28;;;;;;;4.70;2.40;;;21.70;84.50;;;;;;5055956;28;20519;-69
2023/08/01 12:28:55;;;;;;;4.00;2.30;;;21.80;83.90;;;;;;5056039;28;20516;-68
2023/08/01 12:31:23;;;;;;;3.63;2.30;;;21.90;82.90;;;;;;5055837;28;20471;-70
2023/08/01 12:33:52;;;;;;;6.40;2.40;;;22.10;82.40;;;;;;5055729;28;20542;-69
2023/08/01 12:36:19;;;;;;;4.53;2.40;;;22.20;81.30;;;;;;5055700;28;20440;-68
2023/08/01 12:38:46;;;;;;;3.90;2.30;;;22.20;80.30;;;;;;5055690;28;20478;-68
2023/08/01 12:41:14;;;;;;;3.00;2.07;;;22.30;79.30;;;;;;5055702;28;20479;-68
2023/08/01 12:43:41;;;;;;;5.67;2.53;;;22.30;79.00;;;;;;5055153;28;20467;-68
2023/08/01 12:46:08;;;;;;;4.93;2.70;;;22.20;79.10;;;;;;5055564;28;20872;-69
2023/08/01 12:48:35;;;;;;;4.93;1.90;;;22.30;78.70;;;;;;5055246;28;20523;-69
2023/08/01 12:51:04;;;;;;;3.43;2.10;;;22.30;78.20;;;;;;5055413;28;20479;-69
2023/08/01 12:53:30;;;;;;;4.93;2.50;;;22.30;78.70;;;;;;5055023;28;20518;-69